sensor_id;sensor_type;location;lat;lon;timestamp;P1;durP1;ratioP1;P2;durP2;ratioP2
56991;SDS011;42885;49.754;18.636;2022-08-24T00:01:03;32.13;;;21.00;;
56991;SDS011;42885;49.754;18.636;2022-08-24T00:03:35;32.77;;;20.57;;
56991;SDS011;42885;49.754;18.636;2022-08-24T00:06:10;29.82;;;20.23;;
56991;SDS011;42885;49.754;18.636;2022-08-24T00:08:42;31.40;;;20.20;;
56991;SDS011;42885;49.754;18.636;2022-08-24T00:11:14;28.17;;;19.65;;
56991;SDS011;42885;49.754;18.636;2022-08-24T00:13:45;32.47;;;21.40;;
56991;SDS011;42885;49.754;18.636;2022-08-24T00:16:16;32.40;;;20.10;;
56991;SDS011;42885;49.754;18.636;2022-08-24T00:18:47;32.27;;;20.70;;
56991;SDS011;42885;49.754;18.636;2022-08-24T00:21:18;32.85;;;20.68;;
56991;SDS011;42885;49.754;18.636;2022-08-24T00:23:54;33.90;;;21.27;;
56991;SDS011;42885;49.754;18.636;2022-08-24T00:26:25;30.70;;;20.95;;
56991;SDS011;42885;49.754;18.636;2022-08-24T00:28:56;32.65;;;21.57;;
56991;SDS011;42885;49.754;18.636;2022-08-24T00:31:27;34.53;;;22.25;;
56991;SDS011;42885;49.754;18.636;2022-08-24T00:33:58;31.97;;;21.00;;
56991;SDS011;42885;49.754;18.636;2022-08-24T00:36:29;34.40;;;21.42;;
56991;SDS011;42885;49.754;18.636;2022-08-24T00:38:59;39.33;;;23.80;;
56991;SDS011;42885;49.754;18.636;2022-08-24T00:41:31;39.85;;;24.80;;
56991;SDS011;42885;49.754;18.636;2022-08-24T00:44:03;43.40;;;26.00;;
56991;SDS011;42885;49.754;18.636;2022-08-24T00:46:43;39.42;;;23.87;;
56991;SDS011;42885;49.754;18.636;2022-08-24T00:49:20;44.85;;;26.65;;
56991;SDS011;42885;49.754;18.636;2022-08-24T00:52:14;48.83;;;27.82;;
56991;SDS011;42885;49.754;18.636;2022-08-24T00:54:49;46.88;;;27.85;;
56991;SDS011;42885;49.754;18.636;2022-08-24T00:57:22;45.03;;;27.25;;
56991;SDS011;42885;49.754;18.636;2022-08-24T00:59:58;46.60;;;26.85;;
56991;SDS011;42885;49.754;18.636;2022-08-24T01:02:32;44.82;;;26.04;;
56991;SDS011;42885;49.754;18.636;2022-08-24T01:05:06;42.73;;;26.07;;
56991;SDS011;42885;49.754;18.636;2022-08-24T01:07:39;39.15;;;25.50;;
56991;SDS011;42885;49.754;18.636;2022-08-24T01:10:13;43.50;;;27.27;;
56991;SDS011;42885;49.754;18.636;2022-08-24T01:12:48;47.88;;;27.77;;
56991;SDS011;42885;49.754;18.636;2022-08-24T01:15:21;53.70;;;28.00;;
56991;SDS011;42885;49.754;18.636;2022-08-24T01:17:53;53.60;;;29.50;;
56991;SDS011;42885;49.754;18.636;2022-08-24T01:20:48;56.30;;;29.73;;
56991;SDS011;42885;49.754;18.636;2022-08-24T01:26:25;51.33;;;29.67;;
56991;SDS011;42885;49.754;18.636;2022-08-24T01:28:54;55.73;;;30.77;;
56991;SDS011;42885;49.754;18.636;2022-08-24T01:31:29;53.08;;;30.00;;
56991;SDS011;42885;49.754;18.636;2022-08-24T01:34:00;54.40;;;29.60;;
56991;SDS011;42885;49.754;18.636;2022-08-24T01:36:33;54.10;;;29.30;;
56991;SDS011;42885;49.754;18.636;2022-08-24T01:39:21;53.42;;;29.55;;
56991;SDS011;42885;49.754;18.636;2022-08-24T01:41:56;49.08;;;28.17;;
56991;SDS011;42885;49.754;18.636;2022-08-24T01:44:29;46.53;;;28.02;;
56991;SDS011;42885;49.754;18.636;2022-08-24T01:47:05;52.45;;;31.12;;
56991;SDS011;42885;49.754;18.636;2022-08-24T01:49:39;52.38;;;31.52;;
56991;SDS011;42885;49.754;18.636;2022-08-24T01:52:21;47.20;;;27.87;;
56991;SDS011;42885;49.754;18.636;2022-08-24T01:54:54;51.53;;;29.30;;
56991;SDS011;42885;49.754;18.636;2022-08-24T01:57:26;47.67;;;29.20;;
56991;SDS011;42885;49.754;18.636;2022-08-24T01:59:59;48.02;;;28.98;;
56991;SDS011;42885;49.754;18.636;2022-08-24T02:02:32;51.73;;;30.08;;
56991;SDS011;42885;49.754;18.636;2022-08-24T02:05:03;52.43;;;29.65;;
56991;SDS011;42885;49.754;18.636;2022-08-24T02:07:34;44.40;;;26.37;;
56991;SDS011;42885;49.754;18.636;2022-08-24T02:10:07;48.00;;;28.87;;
56991;SDS011;42885;49.754;18.636;2022-08-24T02:12:40;45.60;;;28.55;;
56991;SDS011;42885;49.754;18.636;2022-08-24T02:15:13;51.65;;;28.42;;
56991;SDS011;42885;49.754;18.636;2022-08-24T02:17:44;43.35;;;26.57;;
56991;SDS011;42885;49.754;18.636;2022-08-24T02:20:16;49.10;;;27.07;;
56991;SDS011;42885;49.754;18.636;2022-08-24T02:22:52;45.25;;;28.42;;
56991;SDS011;42885;49.754;18.636;2022-08-24T02:25:22;46.95;;;26.97;;
56991;SDS011;42885;49.754;18.636;2022-08-24T02:27:56;45.38;;;27.95;;
56991;SDS011;42885;49.754;18.636;2022-08-24T02:30:28;42.67;;;24.87;;
56991;SDS011;42885;49.754;18.636;2022-08-24T02:32:59;39.53;;;25.20;;
56991;SDS011;42885;49.754;18.636;2022-08-24T02:35:31;39.40;;;24.54;;
56991;SDS011;42885;49.754;18.636;2022-08-24T02:38:02;41.92;;;25.37;;
56991;SDS011;42885;49.754;18.636;2022-08-24T02:40:34;44.00;;;24.65;;
56991;SDS011;42885;49.754;18.636;2022-08-24T02:43:05;44.13;;;25.52;;
56991;SDS011;42885;49.754;18.636;2022-08-24T02:45:38;40.90;;;25.15;;
56991;SDS011;42885;49.754;18.636;2022-08-24T02:48:10;47.43;;;26.50;;
56991;SDS011;42885;49.754;18.636;2022-08-24T02:50:42;48.43;;;26.93;;
56991;SDS011;42885;49.754;18.636;2022-08-24T02:53:15;48.87;;;27.58;;
56991;SDS011;42885;49.754;18.636;2022-08-24T02:55:49;48.65;;;25.43;;
56991;SDS011;42885;49.754;18.636;2022-08-24T02:58:20;47.48;;;25.32;;
56991;SDS011;42885;49.754;18.636;2022-08-24T03:00:52;54.67;;;27.85;;
56991;SDS011;42885;49.754;18.636;2022-08-24T03:03:23;52.13;;;27.80;;
56991;SDS011;42885;49.754;18.636;2022-08-24T03:05:54;51.85;;;28.98;;
56991;SDS011;42885;49.754;18.636;2022-08-24T03:08:25;51.58;;;28.70;;
56991;SDS011;42885;49.754;18.636;2022-08-24T03:10:56;52.43;;;29.30;;
56991;SDS011;42885;49.754;18.636;2022-08-24T03:13:28;53.25;;;28.15;;
56991;SDS011;42885;49.754;18.636;2022-08-24T03:15:59;56.37;;;28.40;;
56991;SDS011;42885;49.754;18.636;2022-08-24T03:18:30;55.33;;;28.12;;
56991;SDS011;42885;49.754;18.636;2022-08-24T03:21:02;53.20;;;29.00;;
56991;SDS011;42885;49.754;18.636;2022-08-24T03:23:35;57.78;;;30.35;;
56991;SDS011;42885;49.754;18.636;2022-08-24T03:26:06;57.15;;;29.15;;
56991;SDS011;42885;49.754;18.636;2022-08-24T03:28:37;59.93;;;28.73;;
56991;SDS011;42885;49.754;18.636;2022-08-24T03:31:08;56.73;;;28.27;;
56991;SDS011;42885;49.754;18.636;2022-08-24T03:33:39;57.93;;;29.23;;
56991;SDS011;42885;49.754;18.636;2022-08-24T03:36:10;50.45;;;25.80;;
56991;SDS011;42885;49.754;18.636;2022-08-24T03:38:41;57.37;;;29.03;;
56991;SDS011;42885;49.754;18.636;2022-08-24T03:41:13;68.50;;;29.90;;
56991;SDS011;42885;49.754;18.636;2022-08-24T03:43:45;69.10;;;31.50;;
56991;SDS011;42885;49.754;18.636;2022-08-24T03:46:20;62.73;;;29.27;;
56991;SDS011;42885;49.754;18.636;2022-08-24T03:48:53;67.22;;;30.52;;
56991;SDS011;42885;49.754;18.636;2022-08-24T03:51:26;73.90;;;32.78;;
56991;SDS011;42885;49.754;18.636;2022-08-24T03:53:58;66.80;;;31.52;;
56991;SDS011;42885;49.754;18.636;2022-08-24T03:56:29;59.15;;;28.62;;
56991;SDS011;42885;49.754;18.636;2022-08-24T03:59:01;66.37;;;29.50;;
56991;SDS011;42885;49.754;18.636;2022-08-24T04:01:35;63.52;;;29.42;;
56991;SDS011;42885;49.754;18.636;2022-08-24T04:04:06;73.05;;;31.00;;
56991;SDS011;42885;49.754;18.636;2022-08-24T04:06:37;66.95;;;30.85;;
56991;SDS011;42885;49.754;18.636;2022-08-24T04:09:11;67.27;;;30.92;;
56991;SDS011;42885;49.754;18.636;2022-08-24T04:11:43;61.60;;;29.57;;
56991;SDS011;42885;49.754;18.636;2022-08-24T04:14:15;62.48;;;30.12;;
56991;SDS011;42885;49.754;18.636;2022-08-24T04:16:48;61.70;;;30.27;;
56991;SDS011;42885;49.754;18.636;2022-08-24T04:19:24;59.45;;;29.15;;
56991;SDS011;42885;49.754;18.636;2022-08-24T04:21:56;58.48;;;29.27;;
56991;SDS011;42885;49.754;18.636;2022-08-24T04:24:27;50.80;;;26.07;;
56991;SDS011;42885;49.754;18.636;2022-08-24T04:26:59;53.47;;;27.23;;
56991;SDS011;42885;49.754;18.636;2022-08-24T04:29:30;51.05;;;27.62;;
56991;SDS011;42885;49.754;18.636;2022-08-24T04:32:01;51.65;;;27.40;;
56991;SDS011;42885;49.754;18.636;2022-08-24T04:34:32;51.50;;;26.50;;
56991;SDS011;42885;49.754;18.636;2022-08-24T04:37:03;48.48;;;25.62;;
56991;SDS011;42885;49.754;18.636;2022-08-24T04:39:36;49.05;;;27.00;;
56991;SDS011;42885;49.754;18.636;2022-08-24T04:42:24;49.98;;;26.73;;
56991;SDS011;42885;49.754;18.636;2022-08-24T04:44:55;47.35;;;25.95;;
56991;SDS011;42885;49.754;18.636;2022-08-24T04:47:26;49.90;;;26.07;;
56991;SDS011;42885;49.754;18.636;2022-08-24T04:49:57;55.15;;;27.75;;
56991;SDS011;42885;49.754;18.636;2022-08-24T04:52:28;52.35;;;28.32;;
56991;SDS011;42885;49.754;18.636;2022-08-24T04:54:59;54.10;;;29.63;;
56991;SDS011;42885;49.754;18.636;2022-08-24T04:57:30;43.90;;;25.97;;
56991;SDS011;42885;49.754;18.636;2022-08-24T05:00:03;46.35;;;25.92;;
56991;SDS011;42885;49.754;18.636;2022-08-24T05:02:37;49.93;;;27.10;;
56991;SDS011;42885;49.754;18.636;2022-08-24T05:05:10;53.68;;;26.77;;
56991;SDS011;42885;49.754;18.636;2022-08-24T05:07:41;52.13;;;27.27;;
56991;SDS011;42885;49.754;18.636;2022-08-24T05:10:15;55.95;;;29.05;;
56991;SDS011;42885;49.754;18.636;2022-08-24T05:12:45;52.60;;;27.42;;
56991;SDS011;42885;49.754;18.636;2022-08-24T05:15:18;54.43;;;27.70;;
56991;SDS011;42885;49.754;18.636;2022-08-24T05:17:50;47.57;;;26.80;;
56991;SDS011;42885;49.754;18.636;2022-08-24T05:20:20;47.65;;;26.27;;
56991;SDS011;42885;49.754;18.636;2022-08-24T05:22:53;49.07;;;27.10;;
56991;SDS011;42885;49.754;18.636;2022-08-24T05:25:24;50.75;;;26.62;;
56991;SDS011;42885;49.754;18.636;2022-08-24T05:27:55;48.25;;;26.57;;
56991;SDS011;42885;49.754;18.636;2022-08-24T05:30:26;46.55;;;23.98;;
56991;SDS011;42885;49.754;18.636;2022-08-24T05:32:57;46.20;;;25.33;;
56991;SDS011;42885;49.754;18.636;2022-08-24T05:35:28;43.85;;;23.98;;
56991;SDS011;42885;49.754;18.636;2022-08-24T05:37:59;42.25;;;23.10;;
56991;SDS011;42885;49.754;18.636;2022-08-24T05:40:32;54.53;;;26.80;;
56991;SDS011;42885;49.754;18.636;2022-08-24T05:43:03;48.55;;;26.27;;
56991;SDS011;42885;49.754;18.636;2022-08-24T05:45:34;44.03;;;25.48;;
56991;SDS011;42885;49.754;18.636;2022-08-24T05:48:05;41.60;;;25.65;;
56991;SDS011;42885;49.754;18.636;2022-08-24T05:50:43;43.67;;;25.77;;
56991;SDS011;42885;49.754;18.636;2022-08-24T05:55:57;46.08;;;25.70;;
56991;SDS011;42885;49.754;18.636;2022-08-24T05:58:29;49.23;;;25.63;;
56991;SDS011;42885;49.754;18.636;2022-08-24T06:01:14;49.70;;;27.00;;
56991;SDS011;42885;49.754;18.636;2022-08-24T06:03:42;47.45;;;25.97;;
56991;SDS011;42885;49.754;18.636;2022-08-24T06:06:15;50.15;;;26.07;;
56991;SDS011;42885;49.754;18.636;2022-08-24T06:08:49;47.47;;;26.23;;
56991;SDS011;42885;49.754;18.636;2022-08-24T06:14:00;47.25;;;25.88;;
56991;SDS011;42885;49.754;18.636;2022-08-24T06:16:38;50.33;;;27.70;;
56991;SDS011;42885;49.754;18.636;2022-08-24T06:19:10;50.67;;;27.82;;
56991;SDS011;42885;49.754;18.636;2022-08-24T06:21:43;53.68;;;28.35;;
56991;SDS011;42885;49.754;18.636;2022-08-24T06:24:16;54.33;;;28.42;;
56991;SDS011;42885;49.754;18.636;2022-08-24T06:29:36;48.10;;;26.70;;
56991;SDS011;42885;49.754;18.636;2022-08-24T06:32:12;57.20;;;28.47;;
56991;SDS011;42885;49.754;18.636;2022-08-24T06:34:43;56.70;;;28.42;;
56991;SDS011;42885;49.754;18.636;2022-08-24T06:37:14;55.67;;;29.90;;
56991;SDS011;42885;49.754;18.636;2022-08-24T06:39:45;54.13;;;29.40;;
56991;SDS011;42885;49.754;18.636;2022-08-24T06:42:16;55.45;;;30.15;;
56991;SDS011;42885;49.754;18.636;2022-08-24T06:44:48;51.47;;;27.17;;
56991;SDS011;42885;49.754;18.636;2022-08-24T06:47:21;50.85;;;27.77;;
56991;SDS011;42885;49.754;18.636;2022-08-24T06:49:53;46.95;;;25.82;;
56991;SDS011;42885;49.754;18.636;2022-08-24T06:52:27;49.67;;;26.40;;
56991;SDS011;42885;49.754;18.636;2022-08-24T06:54:58;54.38;;;27.82;;
56991;SDS011;42885;49.754;18.636;2022-08-24T06:57:30;50.10;;;27.22;;
56991;SDS011;42885;49.754;18.636;2022-08-24T07:00:01;55.65;;;28.25;;
56991;SDS011;42885;49.754;18.636;2022-08-24T07:02:33;50.07;;;27.73;;
56991;SDS011;42885;49.754;18.636;2022-08-24T07:05:06;52.98;;;28.32;;
56991;SDS011;42885;49.754;18.636;2022-08-24T07:08:13;41.48;;;23.20;;
56991;SDS011;42885;49.754;18.636;2022-08-24T07:10:44;48.25;;;25.57;;
56991;SDS011;42885;49.754;18.636;2022-08-24T07:13:15;46.95;;;26.48;;
56991;SDS011;42885;49.754;18.636;2022-08-24T07:15:46;49.50;;;26.47;;
56991;SDS011;42885;49.754;18.636;2022-08-24T07:18:20;43.30;;;24.82;;
56991;SDS011;42885;49.754;18.636;2022-08-24T07:20:51;48.17;;;25.30;;
56991;SDS011;42885;49.754;18.636;2022-08-24T07:23:40;42.23;;;24.27;;
56991;SDS011;42885;49.754;18.636;2022-08-24T07:26:13;38.55;;;21.60;;
56991;SDS011;42885;49.754;18.636;2022-08-24T07:28:49;35.80;;;21.53;;
56991;SDS011;42885;49.754;18.636;2022-08-24T07:31:21;36.77;;;22.07;;
56991;SDS011;42885;49.754;18.636;2022-08-24T07:33:54;38.00;;;22.70;;
56991;SDS011;42885;49.754;18.636;2022-08-24T07:36:25;36.20;;;22.17;;
56991;SDS011;42885;49.754;18.636;2022-08-24T07:38:56;37.70;;;22.50;;
56991;SDS011;42885;49.754;18.636;2022-08-24T07:41:27;33.55;;;20.40;;
56991;SDS011;42885;49.754;18.636;2022-08-24T07:43:59;35.55;;;21.40;;
56991;SDS011;42885;49.754;18.636;2022-08-24T07:46:30;31.35;;;19.62;;
56991;SDS011;42885;49.754;18.636;2022-08-24T07:49:01;29.37;;;19.40;;
56991;SDS011;42885;49.754;18.636;2022-08-24T07:51:33;30.55;;;18.87;;
56991;SDS011;42885;49.754;18.636;2022-08-24T07:54:05;40.12;;;24.35;;
56991;SDS011;42885;49.754;18.636;2022-08-24T07:56:44;44.57;;;25.77;;
56991;SDS011;42885;49.754;18.636;2022-08-24T07:59:15;40.03;;;23.25;;
56991;SDS011;42885;49.754;18.636;2022-08-24T08:01:47;41.77;;;23.07;;
56991;SDS011;42885;49.754;18.636;2022-08-24T08:04:19;37.67;;;23.05;;
56991;SDS011;42885;49.754;18.636;2022-08-24T08:06:53;41.85;;;23.67;;
56991;SDS011;42885;49.754;18.636;2022-08-24T08:09:24;39.70;;;24.37;;
56991;SDS011;42885;49.754;18.636;2022-08-24T08:11:56;41.77;;;22.87;;
56991;SDS011;42885;49.754;18.636;2022-08-24T08:14:26;44.75;;;25.20;;
56991;SDS011;42885;49.754;18.636;2022-08-24T08:16:57;53.52;;;26.62;;
56991;SDS011;42885;49.754;18.636;2022-08-24T08:19:28;43.50;;;24.02;;
56991;SDS011;42885;49.754;18.636;2022-08-24T08:22:00;52.80;;;26.35;;
56991;SDS011;42885;49.754;18.636;2022-08-24T08:24:50;50.13;;;25.13;;
56991;SDS011;42885;49.754;18.636;2022-08-24T08:27:21;49.47;;;24.77;;
56991;SDS011;42885;49.754;18.636;2022-08-24T08:29:56;47.35;;;24.77;;
56991;SDS011;42885;49.754;18.636;2022-08-24T08:32:27;51.77;;;25.02;;
56991;SDS011;42885;49.754;18.636;2022-08-24T08:34:59;48.90;;;24.72;;
56991;SDS011;42885;49.754;18.636;2022-08-24T08:37:35;45.52;;;23.75;;
56991;SDS011;42885;49.754;18.636;2022-08-24T08:40:08;45.52;;;25.80;;
56991;SDS011;42885;49.754;18.636;2022-08-24T08:43:00;46.63;;;25.32;;
56991;SDS011;42885;49.754;18.636;2022-08-24T08:45:32;48.92;;;25.48;;
56991;SDS011;42885;49.754;18.636;2022-08-24T08:57:05;45.27;;;24.57;;
56991;SDS011;42885;49.754;18.636;2022-08-24T08:59:46;49.50;;;25.03;;
56991;SDS011;42885;49.754;18.636;2022-08-24T09:06:16;51.18;;;25.92;;
56991;SDS011;42885;49.754;18.636;2022-08-24T09:09:03;53.03;;;28.07;;
56991;SDS011;42885;49.754;18.636;2022-08-24T09:26:57;64.97;;;31.25;;
56991;SDS011;42885;49.754;18.636;2022-08-24T09:29:50;63.60;;;31.97;;
56991;SDS011;42885;49.754;18.636;2022-08-24T09:35:59;60.20;;;31.27;;
56991;SDS011;42885;49.754;18.636;2022-08-24T09:38:43;64.30;;;30.12;;
56991;SDS011;42885;49.754;18.636;2022-08-24T09:51:13;51.37;;;30.73;;
56991;SDS011;42885;49.754;18.636;2022-08-24T09:56:57;49.25;;;29.15;;
56991;SDS011;42885;49.754;18.636;2022-08-24T10:00:11;49.18;;;29.35;;
56991;SDS011;42885;49.754;18.636;2022-08-24T10:03:05;45.12;;;28.47;;
56991;SDS011;42885;49.754;18.636;2022-08-24T10:11:50;46.13;;;27.40;;
56991;SDS011;42885;49.754;18.636;2022-08-24T10:14:49;38.17;;;27.83;;
56991;SDS011;42885;49.754;18.636;2022-08-24T10:27:19;43.07;;;28.90;;
56991;SDS011;42885;49.754;18.636;2022-08-24T10:33:27;32.23;;;25.77;;
56991;SDS011;42885;49.754;18.636;2022-08-24T10:45:36;27.80;;;23.65;;
56991;SDS011;42885;49.754;18.636;2022-08-24T10:54:07;30.17;;;25.10;;
56991;SDS011;42885;49.754;18.636;2022-08-24T10:56:55;30.63;;;23.97;;
56991;SDS011;42885;49.754;18.636;2022-08-24T10:59:40;28.67;;;23.62;;
56991;SDS011;42885;49.754;18.636;2022-08-24T11:02:30;31.80;;;24.82;;
56991;SDS011;42885;49.754;18.636;2022-08-24T11:05:01;31.82;;;23.95;;
56991;SDS011;42885;49.754;18.636;2022-08-24T11:07:34;29.30;;;23.50;;
56991;SDS011;42885;49.754;18.636;2022-08-24T11:10:07;30.60;;;23.73;;
56991;SDS011;42885;49.754;18.636;2022-08-24T11:12:53;30.27;;;23.40;;
56991;SDS011;42885;49.754;18.636;2022-08-24T11:15:23;32.03;;;22.37;;
56991;SDS011;42885;49.754;18.636;2022-08-24T11:17:57;29.30;;;22.07;;
56991;SDS011;42885;49.754;18.636;2022-08-24T11:23:15;28.62;;;23.18;;
56991;SDS011;42885;49.754;18.636;2022-08-24T11:25:52;28.98;;;23.42;;
56991;SDS011;42885;49.754;18.636;2022-08-24T11:28:44;30.97;;;24.37;;
56991;SDS011;42885;49.754;18.636;2022-08-24T11:31:26;31.42;;;23.35;;
56991;SDS011;42885;49.754;18.636;2022-08-24T11:34:00;30.50;;;23.20;;
56991;SDS011;42885;49.754;18.636;2022-08-24T11:36:35;32.03;;;23.38;;
56991;SDS011;42885;49.754;18.636;2022-08-24T11:39:13;30.55;;;24.25;;
56991;SDS011;42885;49.754;18.636;2022-08-24T11:41:53;31.35;;;22.67;;
56991;SDS011;42885;49.754;18.636;2022-08-24T11:47:34;25.15;;;20.95;;
56991;SDS011;42885;49.754;18.636;2022-08-24T12:04:08;27.35;;;21.15;;
56991;SDS011;42885;49.754;18.636;2022-08-24T12:10:15;25.90;;;19.40;;
56991;SDS011;42885;49.754;18.636;2022-08-24T12:12:53;27.42;;;19.55;;
56991;SDS011;42885;49.754;18.636;2022-08-24T12:18:29;28.27;;;20.05;;
56991;SDS011;42885;49.754;18.636;2022-08-24T12:21:13;30.90;;;19.17;;
56991;SDS011;42885;49.754;18.636;2022-08-24T12:23:51;31.33;;;19.23;;
56991;SDS011;42885;49.754;18.636;2022-08-24T12:26:43;26.93;;;20.30;;
56991;SDS011;42885;49.754;18.636;2022-08-24T12:29:22;31.90;;;21.15;;
56991;SDS011;42885;49.754;18.636;2022-08-24T12:32:01;28.30;;;20.43;;
56991;SDS011;42885;49.754;18.636;2022-08-24T12:37:34;30.88;;;21.05;;
56991;SDS011;42885;49.754;18.636;2022-08-24T12:43:36;23.83;;;19.45;;
56991;SDS011;42885;49.754;18.636;2022-08-24T12:46:24;31.52;;;20.40;;
56991;SDS011;42885;49.754;18.636;2022-08-24T12:49:00;30.92;;;20.02;;
56991;SDS011;42885;49.754;18.636;2022-08-24T12:51:53;29.00;;;19.70;;
56991;SDS011;42885;49.754;18.636;2022-08-24T12:54:39;28.32;;;19.73;;
56991;SDS011;42885;49.754;18.636;2022-08-24T13:00:23;34.63;;;25.17;;
56991;SDS011;42885;49.754;18.636;2022-08-24T13:03:21;31.75;;;18.65;;
56991;SDS011;42885;49.754;18.636;2022-08-24T13:05:54;29.05;;;19.55;;
56991;SDS011;42885;49.754;18.636;2022-08-24T13:08:37;27.73;;;19.60;;
56991;SDS011;42885;49.754;18.636;2022-08-24T13:11:11;34.67;;;19.48;;
56991;SDS011;42885;49.754;18.636;2022-08-24T13:13:46;28.38;;;19.45;;
56991;SDS011;42885;49.754;18.636;2022-08-24T13:19:13;28.65;;;18.52;;
56991;SDS011;42885;49.754;18.636;2022-08-24T13:21:55;34.95;;;20.30;;
56991;SDS011;42885;49.754;18.636;2022-08-24T13:30:06;31.57;;;18.53;;
56991;SDS011;42885;49.754;18.636;2022-08-24T13:32:43;30.63;;;19.73;;
56991;SDS011;42885;49.754;18.636;2022-08-24T13:49:46;30.32;;;19.62;;
56991;SDS011;42885;49.754;18.636;2022-08-24T13:55:34;29.75;;;17.80;;
56991;SDS011;42885;49.754;18.636;2022-08-24T14:01:47;29.48;;;17.48;;
56991;SDS011;42885;49.754;18.636;2022-08-24T14:03:41;28.75;;;17.62;;
56991;SDS011;42885;49.754;18.636;2022-08-24T14:06:26;29.67;;;17.17;;
56991;SDS011;42885;49.754;18.636;2022-08-24T14:17:28;25.05;;;16.85;;
56991;SDS011;42885;49.754;18.636;2022-08-24T14:23:53;23.70;;;17.90;;
56991;SDS011;42885;49.754;18.636;2022-08-24T14:40:32;37.55;;;19.77;;
56991;SDS011;42885;49.754;18.636;2022-08-24T14:46:26;36.47;;;20.67;;
56991;SDS011;42885;49.754;18.636;2022-08-24T14:51:57;35.28;;;20.52;;
56991;SDS011;42885;49.754;18.636;2022-08-24T15:00:14;33.90;;;19.87;;
56991;SDS011;42885;49.754;18.636;2022-08-24T15:05:40;37.55;;;20.08;;
56991;SDS011;42885;49.754;18.636;2022-08-24T15:08:49;33.63;;;21.23;;
56991;SDS011;42885;49.754;18.636;2022-08-24T15:11:39;34.97;;;20.43;;
56991;SDS011;42885;49.754;18.636;2022-08-24T15:16:48;35.92;;;20.85;;
56991;SDS011;42885;49.754;18.636;2022-08-24T15:22:20;38.38;;;21.12;;
56991;SDS011;42885;49.754;18.636;2022-08-24T15:24:44;34.50;;;20.50;;
56991;SDS011;42885;49.754;18.636;2022-08-24T15:27:26;40.03;;;21.07;;
56991;SDS011;42885;49.754;18.636;2022-08-24T15:30:34;36.08;;;22.27;;
56991;SDS011;42885;49.754;18.636;2022-08-24T15:33:07;32.63;;;21.87;;
56991;SDS011;42885;49.754;18.636;2022-08-24T15:36:11;35.57;;;21.90;;
56991;SDS011;42885;49.754;18.636;2022-08-24T15:38:46;38.47;;;20.70;;
56991;SDS011;42885;49.754;18.636;2022-08-24T15:41:18;36.13;;;21.62;;
56991;SDS011;42885;49.754;18.636;2022-08-24T15:46:33;36.93;;;20.43;;
56991;SDS011;42885;49.754;18.636;2022-08-24T16:02:43;26.23;;;19.70;;
56991;SDS011;42885;49.754;18.636;2022-08-24T16:13:29;32.20;;;19.87;;
56991;SDS011;42885;49.754;18.636;2022-08-24T16:16:11;36.63;;;20.57;;
56991;SDS011;42885;49.754;18.636;2022-08-24T16:18:49;32.58;;;19.32;;
56991;SDS011;42885;49.754;18.636;2022-08-24T16:26:55;37.05;;;19.55;;
56991;SDS011;42885;49.754;18.636;2022-08-24T16:32:14;33.48;;;20.25;;
56991;SDS011;42885;49.754;18.636;2022-08-24T16:34:51;32.85;;;19.77;;
56991;SDS011;42885;49.754;18.636;2022-08-24T16:37:26;34.15;;;20.15;;
56991;SDS011;42885;49.754;18.636;2022-08-24T16:39:56;30.92;;;18.95;;
56991;SDS011;42885;49.754;18.636;2022-08-24T16:42:46;28.17;;;18.30;;
56991;SDS011;42885;49.754;18.636;2022-08-24T16:45:30;29.67;;;18.47;;
56991;SDS011;42885;49.754;18.636;2022-08-24T16:48:01;28.27;;;18.57;;
56991;SDS011;42885;49.754;18.636;2022-08-24T16:50:33;29.85;;;18.05;;
56991;SDS011;42885;49.754;18.636;2022-08-24T16:53:04;28.65;;;17.42;;
56991;SDS011;42885;49.754;18.636;2022-08-24T16:55:35;26.05;;;17.95;;
56991;SDS011;42885;49.754;18.636;2022-08-24T16:58:28;36.63;;;17.70;;
56991;SDS011;42885;49.754;18.636;2022-08-24T17:01:20;26.05;;;16.77;;
56991;SDS011;42885;49.754;18.636;2022-08-24T17:03:57;25.40;;;16.97;;
56991;SDS011;42885;49.754;18.636;2022-08-24T17:06:29;29.85;;;17.80;;
56991;SDS011;42885;49.754;18.636;2022-08-24T17:09:00;28.60;;;18.30;;
56991;SDS011;42885;49.754;18.636;2022-08-24T17:11:31;38.60;;;17.87;;
56991;SDS011;42885;49.754;18.636;2022-08-24T17:14:06;27.90;;;17.60;;
56991;SDS011;42885;49.754;18.636;2022-08-24T17:16:37;34.60;;;17.70;;
56991;SDS011;42885;49.754;18.636;2022-08-24T17:19:10;32.50;;;19.03;;
56991;SDS011;42885;49.754;18.636;2022-08-24T17:21:42;37.65;;;18.20;;
56991;SDS011;42885;49.754;18.636;2022-08-24T17:24:32;36.40;;;19.12;;
56991;SDS011;42885;49.754;18.636;2022-08-24T17:29:34;37.70;;;20.32;;
56991;SDS011;42885;49.754;18.636;2022-08-24T17:32:05;33.67;;;19.67;;
56991;SDS011;42885;49.754;18.636;2022-08-24T17:34:36;34.58;;;17.90;;
56991;SDS011;42885;49.754;18.636;2022-08-24T17:37:08;37.23;;;18.67;;
56991;SDS011;42885;49.754;18.636;2022-08-24T17:39:39;33.63;;;18.10;;
56991;SDS011;42885;49.754;18.636;2022-08-24T17:42:12;30.80;;;17.30;;
56991;SDS011;42885;49.754;18.636;2022-08-24T17:44:43;28.52;;;17.48;;
56991;SDS011;42885;49.754;18.636;2022-08-24T17:47:14;32.00;;;18.20;;
56991;SDS011;42885;49.754;18.636;2022-08-24T17:49:46;31.82;;;18.02;;
56991;SDS011;42885;49.754;18.636;2022-08-24T17:52:17;36.98;;;19.12;;
56991;SDS011;42885;49.754;18.636;2022-08-24T17:54:48;35.65;;;20.55;;
56991;SDS011;42885;49.754;18.636;2022-08-24T17:57:19;32.78;;;22.48;;
56991;SDS011;42885;49.754;18.636;2022-08-24T17:59:52;40.53;;;22.27;;
56991;SDS011;42885;49.754;18.636;2022-08-24T18:02:23;35.60;;;22.65;;
56991;SDS011;42885;49.754;18.636;2022-08-24T18:04:54;35.23;;;22.10;;
56991;SDS011;42885;49.754;18.636;2022-08-24T18:07:26;36.37;;;22.83;;
56991;SDS011;42885;49.754;18.636;2022-08-24T18:09:58;35.40;;;22.87;;
56991;SDS011;42885;49.754;18.636;2022-08-24T18:12:32;32.67;;;22.87;;
56991;SDS011;42885;49.754;18.636;2022-08-24T18:15:05;37.90;;;22.87;;
56991;SDS011;42885;49.754;18.636;2022-08-24T18:17:43;35.30;;;25.13;;
56991;SDS011;42885;49.754;18.636;2022-08-24T18:20:14;33.80;;;24.77;;
56991;SDS011;42885;49.754;18.636;2022-08-24T18:22:48;33.63;;;23.57;;
56991;SDS011;42885;49.754;18.636;2022-08-24T18:25:20;33.07;;;21.10;;
56991;SDS011;42885;49.754;18.636;2022-08-24T18:27:55;30.57;;;19.35;;
56991;SDS011;42885;49.754;18.636;2022-08-24T18:30:28;18.82;;;11.57;;
56991;SDS011;42885;49.754;18.636;2022-08-24T18:33:00;17.27;;;12.73;;
56991;SDS011;42885;49.754;18.636;2022-08-24T18:35:33;16.82;;;11.33;;
56991;SDS011;42885;49.754;18.636;2022-08-24T18:38:05;20.43;;;12.98;;
56991;SDS011;42885;49.754;18.636;2022-08-24T18:40:36;22.87;;;17.25;;
56991;SDS011;42885;49.754;18.636;2022-08-24T18:43:11;17.40;;;12.07;;
56991;SDS011;42885;49.754;18.636;2022-08-24T18:45:52;19.03;;;13.60;;
56991;SDS011;42885;49.754;18.636;2022-08-24T18:48:29;24.15;;;13.32;;
56991;SDS011;42885;49.754;18.636;2022-08-24T18:51:00;23.87;;;15.55;;